createdAt,value
2022-09-06T00:00:49.335Z,13.18
2022-09-06T00:02:55.381Z,12.65
2022-09-06T00:05:03.229Z,15.07
2022-09-06T00:07:25.306Z,14.07
2022-09-06T00:09:36.499Z,14.82
2022-09-06T00:12:00.235Z,12.18
2022-09-06T00:14:15.909Z,15.02
2022-09-06T00:16:30.660Z,12.88
2022-09-06T00:18:45.568Z,11.80
2022-09-06T00:21:00.519Z,13.38
2022-09-06T00:23:18.998Z,11.55
2022-09-06T00:25:36.185Z,12.27
2022-09-06T00:28:03.141Z,10.88
2022-09-06T00:30:13.935Z,10.98
2022-09-06T00:32:22.759Z,12.00
2022-09-06T00:34:36.225Z,11.98
2022-09-06T00:36:43.930Z,11.05
2022-09-06T00:39:06.422Z,10.63
2022-09-06T00:41:30.993Z,9.95
2022-09-06T00:43:38.824Z,10.48
2022-09-06T00:45:48.212Z,12.15
2022-09-06T00:47:52.926Z,12.20
2022-09-06T00:49:58.404Z,9.90
2022-09-06T00:52:06.846Z,10.40
2022-09-06T00:54:13.757Z,13.15
2022-09-06T00:56:23.751Z,13.05
2022-09-06T00:58:28.905Z,10.30
2022-09-06T01:00:34.694Z,11.45
2022-09-06T01:02:42.989Z,10.77
2022-09-06T01:04:50.652Z,11.20
2022-09-06T01:07:21.317Z,9.90
2022-09-06T01:09:43.930Z,13.25
2022-09-06T01:12:13.035Z,10.07
2022-09-06T01:15:01.560Z,9.60
2022-09-06T01:17:25.674Z,9.70
2022-09-06T01:22:09.215Z,8.60
2022-09-06T01:24:32.007Z,9.85
2022-09-06T01:27:01.351Z,7.50
2022-09-06T01:29:39.203Z,8.00
2022-09-06T01:31:47.309Z,7.80
2022-09-06T01:34:16.776Z,8.50
2022-09-06T01:36:26.397Z,8.05
2022-09-06T01:38:33.483Z,12.50
2022-09-06T01:40:48.128Z,19.08
2022-09-06T01:43:02.626Z,11.55
2022-09-06T01:45:43.640Z,11.52
2022-09-06T01:48:21.278Z,7.47
2022-09-06T01:50:53.712Z,10.10
2022-09-06T01:53:29.906Z,8.82
2022-09-06T01:55:53.044Z,9.93
2022-09-06T01:58:11.817Z,8.75
2022-09-06T02:05:37.177Z,8.32
2022-09-06T02:07:42.655Z,10.38
2022-09-06T02:09:51.122Z,11.50
2022-09-06T02:12:00.103Z,9.23
2022-09-06T02:14:39.512Z,10.75
2022-09-06T02:16:47.311Z,12.57
2022-09-06T02:19:02.555Z,18.92
2022-09-06T02:21:07.346Z,9.35
2022-09-06T02:23:13.794Z,9.30
2022-09-06T02:25:31.472Z,10.57
2022-09-06T02:27:39.039Z,10.27
2022-09-06T02:29:46.139Z,11.90
2022-09-06T02:32:17.579Z,9.38
2022-09-06T02:34:22.368Z,10.15
2022-09-06T02:36:28.771Z,9.80
2022-09-06T02:38:35.242Z,10.15
2022-09-06T02:40:40.069Z,10.70
2022-09-06T02:42:46.737Z,9.77
2022-09-06T02:44:56.675Z,10.15
2022-09-06T02:47:09.127Z,9.88
2022-09-06T02:49:33.603Z,9.95
2022-09-06T02:51:40.542Z,9.82
2022-09-06T02:53:52.411Z,10.07
2022-09-06T02:55:58.057Z,9.73
2022-09-06T02:58:04.579Z,9.75
2022-09-06T03:00:09.641Z,10.43
2022-09-06T03:02:17.606Z,10.10
2022-09-06T03:04:24.286Z,9.93
2022-09-06T03:06:28.847Z,9.65
2022-09-06T03:08:35.213Z,10.05
2022-09-06T03:10:39.610Z,11.20
2022-09-06T03:12:46.214Z,10.38
2022-09-06T03:14:54.953Z,9.30
2022-09-06T03:17:02.344Z,9.45
2022-09-06T03:19:06.855Z,9.85
2022-09-06T03:21:13.524Z,10.45
2022-09-06T03:23:21.394Z,15.32
2022-09-06T03:25:26.790Z,10.63
2022-09-06T03:27:31.935Z,10.90
2022-09-06T03:29:39.447Z,10.43
2022-09-06T03:31:43.864Z,10.43
2022-09-06T03:33:51.338Z,11.73
2022-09-06T03:36:03.196Z,10.85
2022-09-06T03:38:07.922Z,10.32
2022-09-06T03:40:14.434Z,10.05
2022-09-06T03:42:19.542Z,10.00
2022-09-06T03:44:24.177Z,10.38
2022-09-06T03:46:31.520Z,9.57
2022-09-06T03:48:36.250Z,9.77
2022-09-06T03:50:44.373Z,12.48
2022-09-06T03:52:50.577Z,10.57
2022-09-06T03:55:00.531Z,22.55
2022-09-06T03:57:16.037Z,15.70
2022-09-06T03:59:22.924Z,11.85
2022-09-06T04:01:29.603Z,11.52
2022-09-06T04:03:34.747Z,9.38
2022-09-06T04:05:41.272Z,8.93
2022-09-06T04:07:47.904Z,9.50
2022-09-06T04:09:52.949Z,9.95
2022-09-06T04:11:59.363Z,10.02
2022-09-06T04:14:06.288Z,8.68
2022-09-06T04:16:12.158Z,7.70
2022-09-06T04:18:18.772Z,8.73
2022-09-06T04:20:25.943Z,8.43
2022-09-06T04:22:30.729Z,11.90
2022-09-06T04:24:37.019Z,7.57
2022-09-06T04:26:43.585Z,8.48
2022-09-06T04:28:48.714Z,7.95
2022-09-06T04:31:04.321Z,7.57
2022-09-06T04:33:13.313Z,7.75
2022-09-06T04:35:18.195Z,9.25
2022-09-06T04:37:24.634Z,7.30
2022-09-06T04:39:32.386Z,7.55
2022-09-06T04:41:37.267Z,6.40
2022-09-06T04:43:44.490Z,6.50
2022-09-06T04:45:52.142Z,6.45
2022-09-06T04:47:56.634Z,7.38
2022-09-06T04:50:04.304Z,7.65
2022-09-06T04:52:11.380Z,6.68
2022-09-06T04:54:18.632Z,7.10
2022-09-06T04:56:25.775Z,7.50
2022-09-06T04:58:35.065Z,5.95
2022-09-06T05:00:48.913Z,5.70
2022-09-06T05:02:55.821Z,6.38
2022-09-06T05:05:03.302Z,7.97
2022-09-06T05:07:09.969Z,6.03
2022-09-06T05:09:16.638Z,5.85
2022-09-06T05:11:23.631Z,7.45
2022-09-06T05:13:28.110Z,4.90
2022-09-06T05:15:35.218Z,5.75
2022-09-06T05:17:45.105Z,6.03
2022-09-06T05:19:50.029Z,4.80
2022-09-06T05:21:56.804Z,7.32
2022-09-06T05:24:03.824Z,6.50
2022-09-06T05:26:09.616Z,5.25
2022-09-06T05:28:14.378Z,4.97
2022-09-06T05:30:19.447Z,5.35
2022-09-06T05:32:24.241Z,5.13
2022-09-06T05:34:30.641Z,5.63
2022-09-06T05:36:36.632Z,4.80
2022-09-06T05:38:41.974Z,4.93
2022-09-06T05:40:48.399Z,4.75
2022-09-06T05:42:55.657Z,4.78
2022-09-06T05:45:00.614Z,4.40
2022-09-06T05:47:07.701Z,4.75
2022-09-06T05:49:15.990Z,5.20
2022-09-06T05:51:20.727Z,4.68
2022-09-06T05:53:27.549Z,5.00
2022-09-06T05:55:34.174Z,5.45
2022-09-06T05:57:39.815Z,6.00
2022-09-06T05:59:46.483Z,4.45
2022-09-06T06:02:08.227Z,4.88
2022-09-06T06:04:22.155Z,9.02
2022-09-06T06:06:29.418Z,4.85
2022-09-06T06:08:36.201Z,5.45
2022-09-06T06:10:41.936Z,5.55
2022-09-06T06:12:49.334Z,7.35
2022-09-06T06:14:56.107Z,5.80
2022-09-06T06:17:01.448Z,6.07
2022-09-06T06:19:10.077Z,4.75
2022-09-06T06:21:25.178Z,6.97
2022-09-06T06:23:31.586Z,4.82
2022-09-06T06:25:36.976Z,5.60
2022-09-06T06:27:43.419Z,5.70
2022-09-06T06:29:50.168Z,5.30
2022-09-06T06:31:55.268Z,5.15
2022-09-06T06:34:04.833Z,5.70
2022-09-06T06:36:34.916Z,4.65
2022-09-06T06:38:39.983Z,4.75
2022-09-06T06:40:48.954Z,5.07
2022-09-06T06:42:53.618Z,5.75
2022-09-06T06:44:58.872Z,5.15
2022-09-06T06:47:07.073Z,5.85
2022-09-06T06:49:13.708Z,6.82
2022-09-06T06:51:20.529Z,4.97
2022-09-06T06:53:27.758Z,5.13
2022-09-06T06:55:34.199Z,5.70
2022-09-06T06:57:38.800Z,7.22
2022-09-06T06:59:45.332Z,5.85
2022-09-06T07:01:54.670Z,6.57
2022-09-06T07:03:59.366Z,5.63
2022-09-06T07:06:13.370Z,5.25
2022-09-06T07:08:28.839Z,5.25
2022-09-06T07:10:34.073Z,5.82
2022-09-06T07:12:42.310Z,6.78
2022-09-06T07:14:48.711Z,6.07
2022-09-06T07:16:58.994Z,6.28
2022-09-06T07:19:06.466Z,6.30
2022-09-06T07:26:07.033Z,8.00
2022-09-06T07:28:14.771Z,5.15
2022-09-06T07:30:21.050Z,4.80
2022-09-06T07:32:28.927Z,5.40
2022-09-06T07:34:38.861Z,5.22
2022-09-06T07:36:43.310Z,7.55
2022-09-06T07:38:52.884Z,6.43
2022-09-06T07:41:05.632Z,6.22
2022-09-06T07:43:10.473Z,5.45
2022-09-06T07:45:15.878Z,8.50
2022-09-06T07:54:41.069Z,7.60
2022-09-06T07:56:45.425Z,6.25
2022-09-06T07:58:53.380Z,6.00
2022-09-06T08:01:35.298Z,5.72
2022-09-06T08:03:40.397Z,8.35
2022-09-06T08:10:44.192Z,7.07
2022-09-06T08:12:58.148Z,6.00
2022-09-06T08:15:04.767Z,7.57
2022-09-06T08:17:09.506Z,6.18
2022-09-06T08:19:16.123Z,5.78
2022-09-06T08:21:24.648Z,6.10
2022-09-06T08:23:30.236Z,5.80
2022-09-06T08:25:35.875Z,6.78
2022-09-06T08:27:42.894Z,6.95
2022-09-06T08:29:47.470Z,6.18
2022-09-06T08:31:54.502Z,7.05
2022-09-06T08:34:01.512Z,5.85
2022-09-06T08:36:06.722Z,6.68
2022-09-06T08:38:13.555Z,7.38
2022-09-06T08:40:25.041Z,6.38
2022-09-06T08:42:32.422Z,6.03
2022-09-06T08:44:59.492Z,9.77
2022-09-06T08:47:09.460Z,6.05
2022-09-06T08:49:14.251Z,6.57
2022-09-06T08:51:47.328Z,6.78
2022-09-06T08:53:54.707Z,6.88
2022-09-06T08:56:21.429Z,6.80
2022-09-06T08:58:52.314Z,6.55
2022-09-06T09:01:07.414Z,7.05
2022-09-06T09:03:16.945Z,7.68
2022-09-06T09:05:36.134Z,7.35
2022-09-06T09:07:46.313Z,9.32
2022-09-06T09:09:51.813Z,6.53
2022-09-06T09:11:59.148Z,7.32
2022-09-06T09:14:22.798Z,6.32
2022-09-06T09:16:31.636Z,8.30
2022-09-06T09:18:49.254Z,7.88
2022-09-06T09:20:55.935Z,7.00
2022-09-06T09:23:00.518Z,7.22
2022-09-06T09:25:08.563Z,17.08
2022-09-06T09:27:15.043Z,11.48
2022-09-06T09:29:26.811Z,11.35
2022-09-06T09:31:43.147Z,8.85
2022-09-06T09:33:47.951Z,9.13
2022-09-06T09:35:53.487Z,11.85
2022-09-06T09:38:12.534Z,11.25
2022-09-06T09:40:29.022Z,8.82
2022-09-06T09:42:37.007Z,7.43
2022-09-06T09:44:45.556Z,9.20
2022-09-06T09:46:52.238Z,8.98
2022-09-06T09:49:30.196Z,10.38
2022-09-06T09:51:41.033Z,7.22
2022-09-06T09:54:00.167Z,7.20
2022-09-06T09:56:04.736Z,8.15
2022-09-06T09:58:21.166Z,7.35
2022-09-06T10:00:41.423Z,11.90
2022-09-06T10:02:46.631Z,8.23
2022-09-06T10:04:55.237Z,9.07
2022-09-06T10:07:16.450Z,7.57
2022-09-06T10:09:41.894Z,9.40
2022-09-06T10:11:58.187Z,8.88
2022-09-06T10:14:22.622Z,8.50
2022-09-06T10:16:44.781Z,10.07
2022-09-06T10:18:53.931Z,10.02
2022-09-06T10:21:11.940Z,14.15
2022-09-06T10:25:49.802Z,20.15
2022-09-06T10:28:26.111Z,13.75
2022-09-06T10:30:34.452Z,13.23
2022-09-06T10:33:03.901Z,9.85
2022-09-06T10:35:27.095Z,9.00
2022-09-06T10:38:03.886Z,10.52
2022-09-06T10:40:13.296Z,10.13
2022-09-06T10:42:44.521Z,10.45
2022-09-06T10:45:08.799Z,11.88
2022-09-06T10:47:16.836Z,17.33
2022-09-06T10:49:21.669Z,14.48
2022-09-06T10:51:41.775Z,9.32
2022-09-06T10:54:14.672Z,13.07
2022-09-06T10:56:42.086Z,12.55
2022-09-06T11:01:43.250Z,13.43
2022-09-06T11:06:00.785Z,13.73
2022-09-06T11:10:39.702Z,47.83
2022-09-06T11:13:18.506Z,52.78
2022-09-06T11:15:23.372Z,23.05
2022-09-06T11:17:56.767Z,30.80
2022-09-06T11:20:33.595Z,17.02
2022-09-06T11:23:10.318Z,28.55
2022-09-06T11:25:50.979Z,37.38
2022-09-06T11:27:59.437Z,28.20
2022-09-06T11:30:06.811Z,21.52
2022-09-06T11:32:38.919Z,14.93
2022-09-06T11:34:47.267Z,18.60
2022-09-06T11:36:58.161Z,15.27
2022-09-06T11:39:03.729Z,12.70
2022-09-06T11:41:12.098Z,14.43
2022-09-06T11:43:30.498Z,13.18
2022-09-06T11:45:47.306Z,13.38
2022-09-06T11:47:53.602Z,17.42
2022-09-06T11:49:57.983Z,14.00
2022-09-06T11:52:06.345Z,18.50
2022-09-06T11:54:24.331Z,16.15
2022-09-06T11:56:57.263Z,16.83
2022-09-06T11:59:08.322Z,16.17
2022-09-06T12:01:33.980Z,14.82
2022-09-06T12:04:07.991Z,16.60
2022-09-06T12:06:30.304Z,15.52
2022-09-06T12:08:35.337Z,17.20
2022-09-06T12:11:07.013Z,16.85
2022-09-06T12:13:35.878Z,19.67
2022-09-06T12:15:53.202Z,20.17
2022-09-06T12:17:59.391Z,20.40
2022-09-06T12:20:09.419Z,20.85
2022-09-06T12:22:46.340Z,24.10
2022-09-06T12:24:57.389Z,20.58
2022-09-06T12:27:24.133Z,24.30
2022-09-06T12:29:34.450Z,27.00
2022-09-06T12:31:45.002Z,23.77
2022-09-06T12:33:51.608Z,22.23
2022-09-06T12:36:13.366Z,27.67
2022-09-06T12:38:23.398Z,19.67
2022-09-06T12:40:36.466Z,21.85
2022-09-06T12:42:42.798Z,23.23
2022-09-06T12:44:52.513Z,22.85
2022-09-06T12:47:07.951Z,21.25
2022-09-06T12:49:14.199Z,20.33
2022-09-06T12:51:22.647Z,19.23
2022-09-06T12:53:34.660Z,21.33
2022-09-06T12:55:40.004Z,19.45
2022-09-06T12:57:50.535Z,22.23
2022-09-06T12:59:59.760Z,19.20
2022-09-06T13:02:07.137Z,20.73
2022-09-06T13:04:23.163Z,20.42
2022-09-06T13:06:31.413Z,20.00
2022-09-06T13:08:44.062Z,19.77
2022-09-06T13:10:48.575Z,20.05
2022-09-06T13:12:55.252Z,21.38
2022-09-06T13:15:04.402Z,22.33
2022-09-06T13:17:10.707Z,22.65
2022-09-06T13:19:46.904Z,23.35
2022-09-06T13:21:52.100Z,19.73
2022-09-06T13:23:56.747Z,22.20
2022-09-06T13:26:01.399Z,21.70
2022-09-06T13:28:06.330Z,21.70
2022-09-06T13:30:11.721Z,21.25
2022-09-06T13:32:31.830Z,24.35
2022-09-06T13:34:59.306Z,24.02
2022-09-06T13:37:09.442Z,23.73
2022-09-06T13:39:29.902Z,23.50
2022-09-06T13:41:42.282Z,23.35
2022-09-06T13:43:49.143Z,22.35
2022-09-06T13:46:08.192Z,22.50
2022-09-06T13:48:28.414Z,21.98
2022-09-06T13:50:34.205Z,22.52
2022-09-06T13:52:42.954Z,21.17
2022-09-06T13:54:49.787Z,23.23
2022-09-06T13:56:54.566Z,25.05
2022-09-06T13:59:04.560Z,24.67
2022-09-06T14:01:10.942Z,23.95
2022-09-06T14:03:23.463Z,25.88
2022-09-06T14:05:30.419Z,21.63
2022-09-06T14:07:35.171Z,20.95
2022-09-06T14:09:40.157Z,20.73
2022-09-06T14:12:12.868Z,19.05
2022-09-06T14:14:30.156Z,20.38
2022-09-06T14:16:35.722Z,20.85
2022-09-06T14:18:45.770Z,22.23
2022-09-06T14:20:55.201Z,20.48
2022-09-06T14:23:00.697Z,22.63
2022-09-06T14:25:10.286Z,21.02
2022-09-06T14:27:16.798Z,23.38
2022-09-06T14:29:21.703Z,20.80
2022-09-06T14:31:30.762Z,21.00
2022-09-06T14:33:36.048Z,22.00
2022-09-06T14:35:42.872Z,19.60
2022-09-06T14:37:56.164Z,21.25
2022-09-06T14:40:27.134Z,22.13
2022-09-06T14:42:32.236Z,23.40
2022-09-06T14:44:41.374Z,23.35
2022-09-06T14:46:48.765Z,22.25
2022-09-06T14:49:02.292Z,24.42
2022-09-06T14:51:27.269Z,22.90
2022-09-06T14:53:40.352Z,26.13
2022-09-06T14:55:45.695Z,22.77
2022-09-06T14:57:53.466Z,23.65
2022-09-06T14:59:59.008Z,25.13
2022-09-06T15:02:03.551Z,29.40
2022-09-06T15:04:12.923Z,29.65
2022-09-06T15:06:21.348Z,28.67
2022-09-06T15:08:45.197Z,26.13
2022-09-06T15:11:01.670Z,25.15
2022-09-06T15:13:06.879Z,21.27
2022-09-06T15:15:11.815Z,27.88
2022-09-06T15:17:20.354Z,22.40
2022-09-06T15:19:44.569Z,29.10
2022-09-06T15:22:03.091Z,24.25
2022-09-06T15:24:12.472Z,27.92
2022-09-06T15:26:17.899Z,27.88
2022-09-06T15:28:22.476Z,28.20
2022-09-06T15:30:30.888Z,24.10
2022-09-06T15:32:35.371Z,27.15
2022-09-06T15:34:39.940Z,27.17
2022-09-06T15:36:46.519Z,25.50
2022-09-06T15:38:54.962Z,25.15
2022-09-06T15:41:25.459Z,28.83
2022-09-06T15:43:39.580Z,27.60
2022-09-06T15:45:51.516Z,26.35
2022-09-06T15:47:56.926Z,22.75
2022-09-06T15:50:04.989Z,22.63
2022-09-06T15:52:13.333Z,23.77
2022-09-06T15:54:41.841Z,26.88
2022-09-06T15:56:48.483Z,26.70
2022-09-06T15:58:53.412Z,26.08
2022-09-06T16:01:14.939Z,22.02
2022-09-06T16:03:24.028Z,22.05
2022-09-06T16:07:53.899Z,25.52
2022-09-06T16:10:04.198Z,23.85
2022-09-06T16:12:09.652Z,22.45
2022-09-06T16:14:15.613Z,23.92
2022-09-06T16:16:22.807Z,23.05
2022-09-06T16:18:27.369Z,22.48
2022-09-06T16:20:34.674Z,21.65
2022-09-06T16:22:43.134Z,21.65
2022-09-06T16:24:48.740Z,21.60
2022-09-06T16:26:53.726Z,19.20
2022-09-06T16:29:04.727Z,22.45
2022-09-06T16:31:10.629Z,19.95
2022-09-06T16:33:15.268Z,22.27
2022-09-06T16:35:24.069Z,22.83
2022-09-06T16:37:29.311Z,24.92
2022-09-06T16:39:34.694Z,22.80
2022-09-06T16:41:48.918Z,23.95
2022-09-06T16:43:58.554Z,25.52
2022-09-06T16:46:10.707Z,23.35
2022-09-06T16:48:20.343Z,22.50
2022-09-06T16:50:25.256Z,26.00
2022-09-06T16:52:31.163Z,19.98
2022-09-06T16:54:40.590Z,20.98
2022-09-06T16:56:45.750Z,20.02
2022-09-06T16:58:55.288Z,21.90
2022-09-06T17:01:03.083Z,23.50
2022-09-06T17:03:09.471Z,23.60
2022-09-06T17:05:15.538Z,19.58
2022-09-06T17:07:23.895Z,26.48
2022-09-06T17:09:29.023Z,24.10
2022-09-06T17:11:33.681Z,21.27
2022-09-06T17:13:42.060Z,20.55
2022-09-06T17:16:06.921Z,21.08
2022-09-06T17:18:12.088Z,20.50
2022-09-06T17:20:23.637Z,24.17
2022-09-06T17:22:28.191Z,21.52
2022-09-06T17:24:32.954Z,21.55
2022-09-06T17:26:40.549Z,20.83
2022-09-06T17:28:45.161Z,20.75
2022-09-06T17:30:54.187Z,17.85
2022-09-06T17:33:01.225Z,16.90
2022-09-06T17:35:06.271Z,16.67
2022-09-06T17:37:16.930Z,17.30
2022-09-06T17:39:26.138Z,22.48
2022-09-06T17:41:38.106Z,23.98
2022-09-06T17:43:44.052Z,25.83
2022-09-06T17:45:52.991Z,26.90
2022-09-06T17:48:01.590Z,24.97
2022-09-06T17:50:08.571Z,27.50
2022-09-06T17:52:32.975Z,20.27
2022-09-06T17:54:38.283Z,19.08
2022-09-06T17:56:43.623Z,15.45
2022-09-06T17:59:00.920Z,13.63
2022-09-06T18:01:07.750Z,16.58
2022-09-06T18:03:13.492Z,16.52
2022-09-06T18:05:22.897Z,17.65
2022-09-06T18:07:30.460Z,19.88
2022-09-06T18:09:38.001Z,16.83
2022-09-06T18:11:48.752Z,18.20
2022-09-06T18:14:04.774Z,18.55
2022-09-06T18:16:11.774Z,18.05
2022-09-06T18:18:19.179Z,23.30
2022-09-06T18:20:30.180Z,20.88
2022-09-06T18:22:40.771Z,19.42
2022-09-06T18:24:58.359Z,20.33
2022-09-06T18:27:08.190Z,21.65
2022-09-06T18:29:32.700Z,21.90
2022-09-06T18:31:42.932Z,19.40
2022-09-06T18:34:00.049Z,21.42
2022-09-06T18:36:07.880Z,26.83
2022-09-06T18:38:17.116Z,25.73
2022-09-06T18:40:22.203Z,23.15
2022-09-06T18:42:28.742Z,20.42
2022-09-06T18:44:36.627Z,20.77
2022-09-06T18:46:41.363Z,20.10
2022-09-06T18:48:46.659Z,20.13
2022-09-06T18:50:59.300Z,21.33
2022-09-06T18:53:07.188Z,19.08
2022-09-06T18:55:14.814Z,21.38
2022-09-06T18:57:30.992Z,18.73
2022-09-06T18:59:36.383Z,19.35
2022-09-06T19:01:41.169Z,19.23
2022-09-06T19:03:54.987Z,20.27
2022-09-06T19:06:14.764Z,20.10
2022-09-06T19:08:25.740Z,19.25
2022-09-06T19:10:32.484Z,20.10
2022-09-06T19:12:37.760Z,20.10
2022-09-06T19:14:44.143Z,22.65
2022-09-06T19:16:53.897Z,20.58
2022-09-06T19:19:07.674Z,23.25
2022-09-06T19:21:20.781Z,22.30
2022-09-06T19:23:34.412Z,23.13
2022-09-06T19:25:43.886Z,20.42
2022-09-06T19:27:49.569Z,19.95
2022-09-06T19:29:59.976Z,20.80
2022-09-06T19:32:07.787Z,21.60
2022-09-06T19:34:16.280Z,20.10
2022-09-06T19:36:24.876Z,22.35
2022-09-06T19:38:42.074Z,19.27
2022-09-06T19:41:04.032Z,21.83
2022-09-06T19:43:12.088Z,21.83
2022-09-06T19:45:16.877Z,19.63
2022-09-06T19:47:22.379Z,19.20
2022-09-06T19:49:32.884Z,21.02
2022-09-06T19:51:44.914Z,19.52
2022-09-06T19:53:54.481Z,19.77
2022-09-06T19:56:04.266Z,18.42
2022-09-06T19:58:17.446Z,17.55
2022-09-06T20:00:32.387Z,18.02
2022-09-06T20:02:42.910Z,17.80
2022-09-06T20:04:48.509Z,17.08
2022-09-06T20:09:10.656Z,16.75
2022-09-06T20:11:15.697Z,17.98
2022-09-06T20:13:22.407Z,17.00
2022-09-06T20:15:32.390Z,16.27
2022-09-06T20:17:47.130Z,16.42
2022-09-06T20:19:59.728Z,19.08
2022-09-06T20:24:21.131Z,15.90
2022-09-06T20:26:29.376Z,19.27
2022-09-06T20:28:40.568Z,17.08
2022-09-06T20:30:47.358Z,22.77
2022-09-06T20:32:53.880Z,16.52
2022-09-06T20:35:03.852Z,17.05
2022-09-06T20:37:10.249Z,16.42
2022-09-06T20:39:31.320Z,16.52
2022-09-06T20:41:40.844Z,16.85
2022-09-06T20:44:00.820Z,18.55
2022-09-06T20:46:20.288Z,19.02
2022-09-06T20:48:30.299Z,15.13
2022-09-06T20:50:39.504Z,16.45
2022-09-06T20:52:44.235Z,17.58
2022-09-06T20:54:54.665Z,17.92
2022-09-06T20:57:00.549Z,16.80
2022-09-06T20:59:07.301Z,16.42
2022-09-06T21:01:25.515Z,16.65
2022-09-06T21:03:30.593Z,14.90
2022-09-06T21:05:35.649Z,21.05
2022-09-06T21:08:08.405Z,15.40
2022-09-06T21:10:13.628Z,16.48
2022-09-06T21:12:20.982Z,23.23
2022-09-06T21:14:30.555Z,16.42
2022-09-06T21:16:42.291Z,15.23
2022-09-06T21:18:54.814Z,16.02
2022-09-06T21:21:11.240Z,15.40
2022-09-06T21:23:24.539Z,19.67
2022-09-06T21:25:29.371Z,18.88
2022-09-06T21:27:34.531Z,18.05
2022-09-06T21:29:42.288Z,17.25
2022-09-06T21:31:49.234Z,17.05
2022-09-06T21:33:59.729Z,16.50
2022-09-06T21:36:08.081Z,16.08
2022-09-06T21:38:16.013Z,16.25
2022-09-06T21:40:25.155Z,17.20
2022-09-06T21:42:31.611Z,19.55
2022-09-06T21:44:41.144Z,25.00
2022-09-06T21:47:08.001Z,20.90
2022-09-06T21:49:16.411Z,20.30
2022-09-06T21:51:24.495Z,20.02
2022-09-06T21:53:37.268Z,18.85
2022-09-06T21:55:43.328Z,18.20
2022-09-06T21:58:04.160Z,17.75
2022-09-06T22:00:13.151Z,21.27
2022-09-06T22:02:19.153Z,19.00
2022-09-06T22:04:26.868Z,18.40
2022-09-06T22:06:34.304Z,19.80
2022-09-06T22:08:42.934Z,20.17
2022-09-06T22:10:51.203Z,20.40
2022-09-06T22:13:02.864Z,19.95
2022-09-06T22:15:11.515Z,23.92
2022-09-06T22:17:18.282Z,20.33
2022-09-06T22:19:28.599Z,24.10
2022-09-06T22:21:35.507Z,28.17
2022-09-06T22:23:41.419Z,28.30
2022-09-06T22:25:53.335Z,28.05
2022-09-06T22:27:59.211Z,27.85
2022-09-06T22:30:10.232Z,27.42
2022-09-06T22:32:17.831Z,25.98
2022-09-06T22:34:22.333Z,30.65
2022-09-06T22:36:26.938Z,30.27
2022-09-06T22:38:36.405Z,27.60
2022-09-06T22:40:41.127Z,30.67
2022-09-06T22:42:46.971Z,26.85
2022-09-06T22:44:58.945Z,28.08
2022-09-06T22:47:06.304Z,27.13
2022-09-06T22:49:10.741Z,24.85
2022-09-06T22:51:19.357Z,27.13
2022-09-06T22:53:23.971Z,27.80
2022-09-06T22:55:28.366Z,25.88
2022-09-06T22:57:34.700Z,22.33
2022-09-06T22:59:44.553Z,22.70
2022-09-06T23:01:51.748Z,18.67
2022-09-06T23:04:00.143Z,18.08
2022-09-06T23:06:05.348Z,21.33
2022-09-06T23:08:12.023Z,17.48
2022-09-06T23:10:19.916Z,18.38
2022-09-06T23:12:26.432Z,20.23
2022-09-06T23:14:31.251Z,17.25
2022-09-06T23:16:41.288Z,18.25
2022-09-06T23:18:46.092Z,21.33
2022-09-06T23:20:51.256Z,20.20
2022-09-06T23:23:00.324Z,20.15
2022-09-06T23:25:05.502Z,24.30
2022-09-06T23:27:10.156Z,20.63
2022-09-06T23:29:19.073Z,22.17
2022-09-06T23:31:24.716Z,26.92
2022-09-06T23:33:30.144Z,25.70
2022-09-06T23:35:35.147Z,24.30
2022-09-06T23:37:40.103Z,21.67
2022-09-06T23:39:45.135Z,18.65
2022-09-06T23:41:51.634Z,18.50
2022-09-06T23:43:56.299Z,19.15
2022-09-06T23:46:03.096Z,20.67
2022-09-06T23:48:08.012Z,21.10
2022-09-06T23:50:13.160Z,23.15
2022-09-06T23:52:18.845Z,19.08
2022-09-06T23:54:28.034Z,20.33
2022-09-06T23:56:33.968Z,19.48
2022-09-06T23:58:39.896Z,19.10
